sensor_id;sensor_type;location;lat;lon;timestamp;P1;durP1;ratioP1;P2;durP2;ratioP2
30173;SDS011;16985;50.814;8.530;2022-11-21T00:00:48;18.00;;;7.10;;
30173;SDS011;16985;50.814;8.530;2022-11-21T00:03:17;14.70;;;5.20;;
30173;SDS011;16985;50.814;8.530;2022-11-21T00:05:44;13.55;;;4.63;;
30173;SDS011;16985;50.814;8.530;2022-11-21T00:08:15;18.60;;;6.80;;
30173;SDS011;16985;50.814;8.530;2022-11-21T00:10:44;13.85;;;4.90;;
30173;SDS011;16985;50.814;8.530;2022-11-21T00:13:12;17.60;;;5.10;;
30173;SDS011;16985;50.814;8.530;2022-11-21T00:15:48;12.37;;;6.53;;
30173;SDS011;16985;50.814;8.530;2022-11-21T00:18:14;8.60;;;4.68;;
30173;SDS011;16985;50.814;8.530;2022-11-21T00:20:40;6.07;;;3.60;;
30173;SDS011;16985;50.814;8.530;2022-11-21T00:23:07;17.05;;;4.15;;
30173;SDS011;16985;50.814;8.530;2022-11-21T00:25:34;9.75;;;4.82;;
30173;SDS011;16985;50.814;8.530;2022-11-21T00:28:01;8.55;;;3.83;;
30173;SDS011;16985;50.814;8.530;2022-11-21T00:30:28;9.85;;;3.60;;
30173;SDS011;16985;50.814;8.530;2022-11-21T00:32:54;7.65;;;3.00;;
30173;SDS011;16985;50.814;8.530;2022-11-21T00:35:20;6.60;;;3.38;;
30173;SDS011;16985;50.814;8.530;2022-11-21T00:37:46;7.70;;;3.78;;
30173;SDS011;16985;50.814;8.530;2022-11-21T00:40:12;9.23;;;2.97;;
30173;SDS011;16985;50.814;8.530;2022-11-21T00:42:39;5.22;;;2.47;;
30173;SDS011;16985;50.814;8.530;2022-11-21T00:45:04;8.05;;;3.15;;
30173;SDS011;16985;50.814;8.530;2022-11-21T00:47:31;4.85;;;2.85;;
30173;SDS011;16985;50.814;8.530;2022-11-21T00:49:57;8.57;;;2.80;;
30173;SDS011;16985;50.814;8.530;2022-11-21T00:52:22;4.70;;;3.03;;
30173;SDS011;16985;50.814;8.530;2022-11-21T00:54:48;14.65;;;4.57;;
30173;SDS011;16985;50.814;8.530;2022-11-21T00:57:14;8.55;;;3.03;;
30173;SDS011;16985;50.814;8.530;2022-11-21T00:59:40;7.47;;;2.70;;
30173;SDS011;16985;50.814;8.530;2022-11-21T01:02:05;6.55;;;2.85;;
30173;SDS011;16985;50.814;8.530;2022-11-21T01:04:32;4.55;;;2.60;;
30173;SDS011;16985;50.814;8.530;2022-11-21T01:06:59;5.47;;;2.60;;
30173;SDS011;16985;50.814;8.530;2022-11-21T01:09:25;5.43;;;2.45;;
30173;SDS011;16985;50.814;8.530;2022-11-21T01:11:52;5.47;;;2.33;;
30173;SDS011;16985;50.814;8.530;2022-11-21T01:14:19;2.35;;;2.00;;
30173;SDS011;16985;50.814;8.530;2022-11-21T01:16:45;4.20;;;2.00;;
30173;SDS011;16985;50.814;8.530;2022-11-21T01:19:11;4.20;;;2.00;;
30173;SDS011;16985;50.814;8.530;2022-11-21T01:21:37;7.45;;;2.30;;
30173;SDS011;16985;50.814;8.530;2022-11-21T01:24:03;2.92;;;1.85;;
30173;SDS011;16985;50.814;8.530;2022-11-21T01:26:29;5.05;;;2.03;;
30173;SDS011;16985;50.814;8.530;2022-11-21T01:28:57;6.10;;;2.42;;
30173;SDS011;16985;50.814;8.530;2022-11-21T01:31:24;4.57;;;2.13;;
30173;SDS011;16985;50.814;8.530;2022-11-21T01:33:52;4.22;;;1.90;;
30173;SDS011;16985;50.814;8.530;2022-11-21T01:36:24;4.32;;;1.50;;
30173;SDS011;16985;50.814;8.530;2022-11-21T01:38:57;2.15;;;1.30;;
30173;SDS011;16985;50.814;8.530;2022-11-21T01:41:30;1.85;;;1.40;;
30173;SDS011;16985;50.814;8.530;2022-11-21T01:46:47;2.38;;;1.15;;
30173;SDS011;16985;50.814;8.530;2022-11-21T01:49:24;4.50;;;1.70;;
30173;SDS011;16985;50.814;8.530;2022-11-21T01:52:02;1.63;;;1.08;;
30173;SDS011;16985;50.814;8.530;2022-11-21T02:00:07;1.17;;;0.90;;
30173;SDS011;16985;50.814;8.530;2022-11-21T02:02:51;1.02;;;0.93;;
30173;SDS011;16985;50.814;8.530;2022-11-21T02:05:22;0.80;;;0.80;;
30173;SDS011;16985;50.814;8.530;2022-11-21T02:07:54;0.80;;;0.80;;
30173;SDS011;16985;50.814;8.530;2022-11-21T02:10:23;0.77;;;0.77;;
30173;SDS011;16985;50.814;8.530;2022-11-21T02:12:51;0.93;;;0.80;;
30173;SDS011;16985;50.814;8.530;2022-11-21T02:15:21;0.90;;;0.82;;
30173;SDS011;16985;50.814;8.530;2022-11-21T02:17:50;0.80;;;0.80;;
30173;SDS011;16985;50.814;8.530;2022-11-21T02:20:20;0.80;;;0.80;;
30173;SDS011;16985;50.814;8.530;2022-11-21T02:22:53;0.70;;;0.70;;
30173;SDS011;16985;50.814;8.530;2022-11-21T02:25:38;0.80;;;0.80;;
30173;SDS011;16985;50.814;8.530;2022-11-21T02:28:07;1.10;;;1.00;;
30173;SDS011;16985;50.814;8.530;2022-11-21T02:30:36;0.90;;;0.80;;
30173;SDS011;16985;50.814;8.530;2022-11-21T02:33:05;0.73;;;0.73;;
30173;SDS011;16985;50.814;8.530;2022-11-21T02:35:31;0.90;;;0.90;;
30173;SDS011;16985;50.814;8.530;2022-11-21T02:37:59;1.08;;;0.98;;
30173;SDS011;16985;50.814;8.530;2022-11-21T02:40:30;1.15;;;1.05;;
30173;SDS011;16985;50.814;8.530;2022-11-21T02:43:05;1.38;;;1.27;;
30173;SDS011;16985;50.814;8.530;2022-11-21T02:45:46;1.80;;;1.70;;
30173;SDS011;16985;50.814;8.530;2022-11-21T02:48:12;2.78;;;1.77;;
30173;SDS011;16985;50.814;8.530;2022-11-21T02:50:42;2.30;;;1.92;;
30173;SDS011;16985;50.814;8.530;2022-11-21T02:53:11;3.72;;;2.20;;
30173;SDS011;16985;50.814;8.530;2022-11-21T02:55:42;3.83;;;2.50;;
30173;SDS011;16985;50.814;8.530;2022-11-21T02:58:08;3.45;;;2.45;;
30173;SDS011;16985;50.814;8.530;2022-11-21T03:00:35;3.55;;;2.38;;
30173;SDS011;16985;50.814;8.530;2022-11-21T03:03:03;6.90;;;3.58;;
30173;SDS011;16985;50.814;8.530;2022-11-21T03:05:29;6.63;;;3.17;;
30173;SDS011;16985;50.814;8.530;2022-11-21T03:07:55;3.42;;;3.13;;
30173;SDS011;16985;50.814;8.530;2022-11-21T03:10:21;4.35;;;3.50;;
30173;SDS011;16985;50.814;8.530;2022-11-21T03:12:47;5.30;;;3.30;;
30173;SDS011;16985;50.814;8.530;2022-11-21T03:15:13;6.03;;;3.40;;
30173;SDS011;16985;50.814;8.530;2022-11-21T03:17:40;6.00;;;3.83;;
30173;SDS011;16985;50.814;8.530;2022-11-21T03:20:07;6.53;;;3.80;;
30173;SDS011;16985;50.814;8.530;2022-11-21T03:22:34;6.28;;;4.25;;
30173;SDS011;16985;50.814;8.530;2022-11-21T03:25:00;6.10;;;4.22;;
30173;SDS011;16985;50.814;8.530;2022-11-21T03:27:26;5.78;;;4.28;;
30173;SDS011;16985;50.814;8.530;2022-11-21T03:29:52;6.45;;;3.80;;
30173;SDS011;16985;50.814;8.530;2022-11-21T03:32:17;7.10;;;4.20;;
30173;SDS011;16985;50.814;8.530;2022-11-21T03:34:44;4.22;;;3.83;;
30173;SDS011;16985;50.814;8.530;2022-11-21T03:37:10;5.90;;;3.97;;
30173;SDS011;16985;50.814;8.530;2022-11-21T03:39:36;7.30;;;4.38;;
30173;SDS011;16985;50.814;8.530;2022-11-21T03:42:01;4.93;;;3.80;;
30173;SDS011;16985;50.814;8.530;2022-11-21T03:44:28;4.80;;;3.53;;
30173;SDS011;16985;50.814;8.530;2022-11-21T03:46:54;5.43;;;4.10;;
30173;SDS011;16985;50.814;8.530;2022-11-21T03:49:19;5.18;;;4.00;;
30173;SDS011;16985;50.814;8.530;2022-11-21T03:51:45;4.28;;;3.88;;
30173;SDS011;16985;50.814;8.530;2022-11-21T03:54:11;9.27;;;5.97;;
30173;SDS011;16985;50.814;8.530;2022-11-21T03:56:37;11.18;;;6.32;;
30173;SDS011;16985;50.814;8.530;2022-11-21T03:59:05;10.30;;;8.00;;
30173;SDS011;16985;50.814;8.530;2022-11-21T04:01:31;11.55;;;7.72;;
30173;SDS011;16985;50.814;8.530;2022-11-21T04:03:58;11.73;;;8.32;;
30173;SDS011;16985;50.814;8.530;2022-11-21T04:06:24;14.90;;;8.30;;
30173;SDS011;16985;50.814;8.530;2022-11-21T04:08:51;16.08;;;9.43;;
30173;SDS011;16985;50.814;8.530;2022-11-21T04:11:17;13.93;;;9.25;;
30173;SDS011;16985;50.814;8.530;2022-11-21T04:13:43;15.30;;;8.90;;
30173;SDS011;16985;50.814;8.530;2022-11-21T04:16:09;13.80;;;8.95;;
30173;SDS011;16985;50.814;8.530;2022-11-21T04:18:35;14.43;;;9.98;;
30173;SDS011;16985;50.814;8.530;2022-11-21T04:21:02;16.95;;;10.50;;
30173;SDS011;16985;50.814;8.530;2022-11-21T04:23:30;19.98;;;10.02;;
30173;SDS011;16985;50.814;8.530;2022-11-21T04:25:56;14.75;;;9.75;;
30173;SDS011;16985;50.814;8.530;2022-11-21T04:28:22;16.15;;;9.50;;
30173;SDS011;16985;50.814;8.530;2022-11-21T04:30:48;14.57;;;9.30;;
30173;SDS011;16985;50.814;8.530;2022-11-21T04:33:15;14.75;;;9.25;;
30173;SDS011;16985;50.814;8.530;2022-11-21T04:35:42;16.33;;;9.85;;
30173;SDS011;16985;50.814;8.530;2022-11-21T04:38:09;16.08;;;9.52;;
30173;SDS011;16985;50.814;8.530;2022-11-21T04:40:35;19.02;;;9.95;;
30173;SDS011;16985;50.814;8.530;2022-11-21T04:43:01;16.17;;;9.98;;
30173;SDS011;16985;50.814;8.530;2022-11-21T04:45:28;17.60;;;9.38;;
30173;SDS011;16985;50.814;8.530;2022-11-21T04:47:54;15.57;;;10.07;;
30173;SDS011;16985;50.814;8.530;2022-11-21T04:50:20;16.02;;;9.63;;
30173;SDS011;16985;50.814;8.530;2022-11-21T04:52:49;15.70;;;10.52;;
30173;SDS011;16985;50.814;8.530;2022-11-21T04:55:16;16.95;;;9.80;;
30173;SDS011;16985;50.814;8.530;2022-11-21T04:57:42;19.13;;;10.57;;
30173;SDS011;16985;50.814;8.530;2022-11-21T05:00:08;17.85;;;10.38;;
30173;SDS011;16985;50.814;8.530;2022-11-21T05:02:35;16.45;;;10.65;;
30173;SDS011;16985;50.814;8.530;2022-11-21T05:05:00;18.20;;;10.27;;
30173;SDS011;16985;50.814;8.530;2022-11-21T05:07:26;16.73;;;9.27;;
30173;SDS011;16985;50.814;8.530;2022-11-21T05:09:52;16.60;;;10.50;;
30173;SDS011;16985;50.814;8.530;2022-11-21T05:12:18;19.75;;;11.05;;
30173;SDS011;16985;50.814;8.530;2022-11-21T05:15:02;17.95;;;10.55;;
30173;SDS011;16985;50.814;8.530;2022-11-21T05:17:28;15.63;;;10.07;;
30173;SDS011;16985;50.814;8.530;2022-11-21T05:19:54;17.08;;;10.95;;
30173;SDS011;16985;50.814;8.530;2022-11-21T05:22:19;22.83;;;11.40;;
30173;SDS011;16985;50.814;8.530;2022-11-21T05:24:45;17.65;;;9.63;;
30173;SDS011;16985;50.814;8.530;2022-11-21T05:27:11;18.67;;;9.85;;
30173;SDS011;16985;50.814;8.530;2022-11-21T05:29:37;19.50;;;11.10;;
30173;SDS011;16985;50.814;8.530;2022-11-21T05:32:03;20.17;;;10.88;;
30173;SDS011;16985;50.814;8.530;2022-11-21T05:34:29;16.88;;;9.23;;
30173;SDS011;16985;50.814;8.530;2022-11-21T05:36:54;18.98;;;9.52;;
30173;SDS011;16985;50.814;8.530;2022-11-21T05:39:22;16.52;;;9.95;;
30173;SDS011;16985;50.814;8.530;2022-11-21T05:41:48;16.73;;;9.43;;
30173;SDS011;16985;50.814;8.530;2022-11-21T05:44:14;16.80;;;10.25;;
30173;SDS011;16985;50.814;8.530;2022-11-21T05:46:39;18.63;;;11.13;;
30173;SDS011;16985;50.814;8.530;2022-11-21T05:49:05;18.35;;;9.73;;
30173;SDS011;16985;50.814;8.530;2022-11-21T05:51:31;19.25;;;9.98;;
30173;SDS011;16985;50.814;8.530;2022-11-21T05:53:57;17.40;;;10.70;;
30173;SDS011;16985;50.814;8.530;2022-11-21T05:56:24;19.60;;;10.55;;
30173;SDS011;16985;50.814;8.530;2022-11-21T05:58:50;17.13;;;11.18;;
30173;SDS011;16985;50.814;8.530;2022-11-21T06:01:18;17.65;;;10.00;;
30173;SDS011;16985;50.814;8.530;2022-11-21T06:04:04;22.58;;;10.73;;
30173;SDS011;16985;50.814;8.530;2022-11-21T06:06:31;15.30;;;9.45;;
30173;SDS011;16985;50.814;8.530;2022-11-21T06:08:57;18.90;;;11.02;;
30173;SDS011;16985;50.814;8.530;2022-11-21T06:11:23;17.42;;;10.73;;
30173;SDS011;16985;50.814;8.530;2022-11-21T06:13:50;16.95;;;10.27;;
30173;SDS011;16985;50.814;8.530;2022-11-21T06:16:17;16.73;;;10.97;;
30173;SDS011;16985;50.814;8.530;2022-11-21T06:18:44;18.35;;;11.23;;
30173;SDS011;16985;50.814;8.530;2022-11-21T06:21:20;20.15;;;10.98;;
30173;SDS011;16985;50.814;8.530;2022-11-21T06:23:52;18.17;;;10.75;;
30173;SDS011;16985;50.814;8.530;2022-11-21T06:26:20;18.40;;;11.65;;
30173;SDS011;16985;50.814;8.530;2022-11-21T06:28:48;22.92;;;11.73;;
30173;SDS011;16985;50.814;8.530;2022-11-21T06:31:19;17.83;;;10.85;;
30173;SDS011;16985;50.814;8.530;2022-11-21T06:33:52;20.65;;;10.95;;
30173;SDS011;16985;50.814;8.530;2022-11-21T06:36:21;22.75;;;12.10;;
30173;SDS011;16985;50.814;8.530;2022-11-21T06:38:47;18.30;;;11.30;;
30173;SDS011;16985;50.814;8.530;2022-11-21T06:43:41;19.70;;;11.40;;
30173;SDS011;16985;50.814;8.530;2022-11-21T06:46:07;19.20;;;11.77;;
30173;SDS011;16985;50.814;8.530;2022-11-21T06:48:34;21.83;;;12.95;;
30173;SDS011;16985;50.814;8.530;2022-11-21T06:51:10;23.75;;;12.88;;
30173;SDS011;16985;50.814;8.530;2022-11-21T06:53:41;19.20;;;11.68;;
30173;SDS011;16985;50.814;8.530;2022-11-21T06:56:07;18.92;;;11.57;;
30173;SDS011;16985;50.814;8.530;2022-11-21T06:58:33;22.20;;;12.65;;
30173;SDS011;16985;50.814;8.530;2022-11-21T07:01:06;18.55;;;12.23;;
30173;SDS011;16985;50.814;8.530;2022-11-21T07:03:34;18.67;;;11.82;;
30173;SDS011;16985;50.814;8.530;2022-11-21T07:06:00;25.65;;;13.70;;
30173;SDS011;16985;50.814;8.530;2022-11-21T07:08:27;18.60;;;12.63;;
30173;SDS011;16985;50.814;8.530;2022-11-21T07:10:55;25.53;;;13.37;;
30173;SDS011;16985;50.814;8.530;2022-11-21T07:13:24;20.52;;;12.05;;
30173;SDS011;16985;50.814;8.530;2022-11-21T07:15:53;22.63;;;12.97;;
30173;SDS011;16985;50.814;8.530;2022-11-21T07:18:25;22.17;;;13.73;;
30173;SDS011;16985;50.814;8.530;2022-11-21T07:20:51;24.80;;;13.85;;
30173;SDS011;16985;50.814;8.530;2022-11-21T07:23:16;23.88;;;13.68;;
30173;SDS011;16985;50.814;8.530;2022-11-21T07:25:42;23.05;;;14.02;;
30173;SDS011;16985;50.814;8.530;2022-11-21T07:28:08;21.33;;;13.40;;
30173;SDS011;16985;50.814;8.530;2022-11-21T07:30:35;21.77;;;14.13;;
30173;SDS011;16985;50.814;8.530;2022-11-21T07:33:02;24.73;;;14.32;;
30173;SDS011;16985;50.814;8.530;2022-11-21T07:35:31;25.55;;;13.80;;
30173;SDS011;16985;50.814;8.530;2022-11-21T07:37:58;24.60;;;14.10;;
30173;SDS011;16985;50.814;8.530;2022-11-21T07:40:24;24.13;;;14.05;;
30173;SDS011;16985;50.814;8.530;2022-11-21T07:42:50;23.55;;;15.07;;
30173;SDS011;16985;50.814;8.530;2022-11-21T07:45:16;25.38;;;15.02;;
30173;SDS011;16985;50.814;8.530;2022-11-21T07:47:42;31.48;;;17.63;;
30173;SDS011;16985;50.814;8.530;2022-11-21T07:50:09;20.92;;;15.27;;
30173;SDS011;16985;50.814;8.530;2022-11-21T07:52:36;34.53;;;18.80;;
30173;SDS011;16985;50.814;8.530;2022-11-21T07:55:03;29.80;;;17.67;;
30173;SDS011;16985;50.814;8.530;2022-11-21T07:57:30;31.42;;;18.13;;
30173;SDS011;16985;50.814;8.530;2022-11-21T07:59:56;36.17;;;19.27;;
30173;SDS011;16985;50.814;8.530;2022-11-21T08:02:23;29.67;;;17.60;;
30173;SDS011;16985;50.814;8.530;2022-11-21T08:04:51;28.50;;;17.10;;
30173;SDS011;16985;50.814;8.530;2022-11-21T08:07:18;37.70;;;18.75;;
30173;SDS011;16985;50.814;8.530;2022-11-21T08:09:46;31.23;;;17.20;;
30173;SDS011;16985;50.814;8.530;2022-11-21T08:12:12;29.75;;;16.75;;
30173;SDS011;16985;50.814;8.530;2022-11-21T08:14:39;28.58;;;17.55;;
30173;SDS011;16985;50.814;8.530;2022-11-21T08:17:05;28.15;;;17.38;;
30173;SDS011;16985;50.814;8.530;2022-11-21T08:19:32;30.13;;;17.05;;
30173;SDS011;16985;50.814;8.530;2022-11-21T08:21:58;26.52;;;16.35;;
30173;SDS011;16985;50.814;8.530;2022-11-21T08:24:24;30.75;;;18.70;;
30173;SDS011;16985;50.814;8.530;2022-11-21T08:26:50;27.98;;;17.15;;
30173;SDS011;16985;50.814;8.530;2022-11-21T08:29:16;34.13;;;16.17;;
30173;SDS011;16985;50.814;8.530;2022-11-21T08:31:43;27.35;;;16.80;;
30173;SDS011;16985;50.814;8.530;2022-11-21T08:34:09;24.90;;;17.05;;
30173;SDS011;16985;50.814;8.530;2022-11-21T08:36:36;25.17;;;16.00;;
30173;SDS011;16985;50.814;8.530;2022-11-21T08:39:03;30.10;;;16.88;;
30173;SDS011;16985;50.814;8.530;2022-11-21T08:41:29;26.98;;;15.65;;
30173;SDS011;16985;50.814;8.530;2022-11-21T08:44:13;28.40;;;16.50;;
30173;SDS011;16985;50.814;8.530;2022-11-21T08:46:39;28.23;;;18.30;;
30173;SDS011;16985;50.814;8.530;2022-11-21T08:49:05;29.55;;;18.27;;
30173;SDS011;16985;50.814;8.530;2022-11-21T08:51:32;27.30;;;16.40;;
30173;SDS011;16985;50.814;8.530;2022-11-21T08:54:01;31.38;;;17.83;;
30173;SDS011;16985;50.814;8.530;2022-11-21T08:56:27;20.60;;;14.60;;
30173;SDS011;16985;50.814;8.530;2022-11-21T08:58:54;21.42;;;13.68;;
30173;SDS011;16985;50.814;8.530;2022-11-21T09:01:20;17.08;;;9.70;;
30173;SDS011;16985;50.814;8.530;2022-11-21T09:03:46;13.18;;;9.68;;
30173;SDS011;16985;50.814;8.530;2022-11-21T09:06:12;12.43;;;7.78;;
30173;SDS011;16985;50.814;8.530;2022-11-21T09:08:38;12.98;;;8.30;;
30173;SDS011;16985;50.814;8.530;2022-11-21T09:11:04;11.00;;;8.00;;
30173;SDS011;16985;50.814;8.530;2022-11-21T09:13:33;12.07;;;7.80;;
30173;SDS011;16985;50.814;8.530;2022-11-21T09:16:00;15.90;;;6.85;;
30173;SDS011;16985;50.814;8.530;2022-11-21T09:18:44;9.52;;;6.65;;
30173;SDS011;16985;50.814;8.530;2022-11-21T09:21:16;12.02;;;6.90;;
30173;SDS011;16985;50.814;8.530;2022-11-21T09:23:43;8.82;;;6.25;;
30173;SDS011;16985;50.814;8.530;2022-11-21T09:26:10;7.63;;;5.22;;
30173;SDS011;16985;50.814;8.530;2022-11-21T09:28:36;6.13;;;5.28;;
30173;SDS011;16985;50.814;8.530;2022-11-21T09:31:02;6.57;;;5.47;;
30173;SDS011;16985;50.814;8.530;2022-11-21T09:33:29;8.00;;;5.68;;
30173;SDS011;16985;50.814;8.530;2022-11-21T09:35:59;9.85;;;5.15;;
30173;SDS011;16985;50.814;8.530;2022-11-21T09:38:26;8.90;;;5.25;;
30173;SDS011;16985;50.814;8.530;2022-11-21T09:41:08;10.13;;;5.85;;
30173;SDS011;16985;50.814;8.530;2022-11-21T09:47:02;9.95;;;5.97;;
30173;SDS011;16985;50.814;8.530;2022-11-21T09:49:44;7.55;;;5.80;;
30173;SDS011;16985;50.814;8.530;2022-11-21T09:52:16;7.70;;;6.32;;
30173;SDS011;16985;50.814;8.530;2022-11-21T09:54:56;7.05;;;5.75;;
30173;SDS011;16985;50.814;8.530;2022-11-21T09:57:26;7.75;;;5.63;;
30173;SDS011;16985;50.814;8.530;2022-11-21T09:59:51;8.32;;;5.85;;
30173;SDS011;16985;50.814;8.530;2022-11-21T10:02:19;11.23;;;6.50;;
30173;SDS011;16985;50.814;8.530;2022-11-21T10:04:47;10.10;;;6.97;;
30173;SDS011;16985;50.814;8.530;2022-11-21T10:07:33;13.30;;;8.80;;
30173;SDS011;16985;50.814;8.530;2022-11-21T10:10:14;17.00;;;9.05;;
30173;SDS011;16985;50.814;8.530;2022-11-21T10:13:12;16.27;;;10.13;;
30173;SDS011;16985;50.814;8.530;2022-11-21T10:18:51;13.90;;;9.75;;
30173;SDS011;16985;50.814;8.530;2022-11-21T10:27:06;14.00;;;7.88;;
30173;SDS011;16985;50.814;8.530;2022-11-21T10:29:43;8.25;;;6.53;;
30173;SDS011;16985;50.814;8.530;2022-11-21T10:32:38;10.52;;;6.78;;
30173;SDS011;16985;50.814;8.530;2022-11-21T10:35:43;12.70;;;6.28;;
30173;SDS011;16985;50.814;8.530;2022-11-21T10:38:13;9.95;;;6.35;;
30173;SDS011;16985;50.814;8.530;2022-11-21T10:41:06;14.18;;;6.55;;
30173;SDS011;16985;50.814;8.530;2022-11-21T10:44:12;8.48;;;6.15;;
30173;SDS011;16985;50.814;8.530;2022-11-21T10:56:11;11.80;;;5.57;;
30173;SDS011;16985;50.814;8.530;2022-11-21T11:01:22;9.30;;;5.35;;
30173;SDS011;16985;50.814;8.530;2022-11-21T11:06:39;9.10;;;5.50;;
30173;SDS011;16985;50.814;8.530;2022-11-21T11:14:52;8.45;;;5.07;;
30173;SDS011;16985;50.814;8.530;2022-11-21T11:17:27;7.82;;;4.85;;
30173;SDS011;16985;50.814;8.530;2022-11-21T11:20:00;9.43;;;4.47;;
30173;SDS011;16985;50.814;8.530;2022-11-21T11:22:37;8.98;;;5.68;;
30173;SDS011;16985;50.814;8.530;2022-11-21T11:25:03;7.55;;;4.68;;
30173;SDS011;16985;50.814;8.530;2022-11-21T11:27:29;7.70;;;5.05;;
30173;SDS011;16985;50.814;8.530;2022-11-21T11:29:55;10.32;;;5.25;;
30173;SDS011;16985;50.814;8.530;2022-11-21T11:32:21;9.05;;;5.18;;
30173;SDS011;16985;50.814;8.530;2022-11-21T11:37:38;9.52;;;4.90;;
30173;SDS011;16985;50.814;8.530;2022-11-21T11:40:18;8.73;;;5.50;;
30173;SDS011;16985;50.814;8.530;2022-11-21T11:45:54;11.10;;;5.23;;
30173;SDS011;16985;50.814;8.530;2022-11-21T11:49:27;7.93;;;4.28;;
30173;SDS011;16985;50.814;8.530;2022-11-21T11:52:31;8.60;;;4.90;;
30173;SDS011;16985;50.814;8.530;2022-11-21T11:55:13;7.53;;;4.43;;
30173;SDS011;16985;50.814;8.530;2022-11-21T11:57:45;6.20;;;4.18;;
30173;SDS011;16985;50.814;8.530;2022-11-21T12:06:26;6.38;;;2.85;;
30173;SDS011;16985;50.814;8.530;2022-11-21T12:09:06;4.32;;;2.88;;
30173;SDS011;16985;50.814;8.530;2022-11-21T12:12:22;6.60;;;3.00;;
30173;SDS011;16985;50.814;8.530;2022-11-21T12:15:02;6.90;;;3.17;;
30173;SDS011;16985;50.814;8.530;2022-11-21T12:20:49;5.40;;;2.95;;
30173;SDS011;16985;50.814;8.530;2022-11-21T12:23:40;6.68;;;3.17;;
30173;SDS011;16985;50.814;8.530;2022-11-21T12:26:20;8.20;;;3.65;;
30173;SDS011;16985;50.814;8.530;2022-11-21T12:40:08;5.65;;;3.28;;
30173;SDS011;16985;50.814;8.530;2022-11-21T12:46:18;5.38;;;2.78;;
30173;SDS011;16985;50.814;8.530;2022-11-21T12:52:37;6.97;;;2.95;;
30173;SDS011;16985;50.814;8.530;2022-11-21T12:55:11;4.30;;;2.78;;
30173;SDS011;16985;50.814;8.530;2022-11-21T12:58:29;7.65;;;4.00;;
30173;SDS011;16985;50.814;8.530;2022-11-21T13:04:13;6.32;;;2.78;;
30173;SDS011;16985;50.814;8.530;2022-11-21T13:06:43;6.15;;;3.60;;
30173;SDS011;16985;50.814;8.530;2022-11-21T13:09:13;6.30;;;3.65;;
30173;SDS011;16985;50.814;8.530;2022-11-21T13:11:45;6.93;;;3.28;;
30173;SDS011;16985;50.814;8.530;2022-11-21T13:14:34;4.60;;;2.70;;
30173;SDS011;16985;50.814;8.530;2022-11-21T13:17:12;4.88;;;2.88;;
30173;SDS011;16985;50.814;8.530;2022-11-21T13:23:00;9.23;;;4.63;;
30173;SDS011;16985;50.814;8.530;2022-11-21T13:28:38;10.35;;;4.25;;
30173;SDS011;16985;50.814;8.530;2022-11-21T13:30:45;5.75;;;2.55;;
30173;SDS011;16985;50.814;8.530;2022-11-21T13:36:12;12.10;;;3.40;;
30173;SDS011;16985;50.814;8.530;2022-11-21T13:44:28;3.95;;;2.53;;
30173;SDS011;16985;50.814;8.530;2022-11-21T13:49:32;6.88;;;2.25;;
30173;SDS011;16985;50.814;8.530;2022-11-21T13:52:10;7.82;;;2.65;;
30173;SDS011;16985;50.814;8.530;2022-11-21T14:09:55;3.67;;;2.65;;
30173;SDS011;16985;50.814;8.530;2022-11-21T14:22:51;4.38;;;2.15;;
30173;SDS011;16985;50.814;8.530;2022-11-21T14:25:35;6.60;;;3.03;;
30173;SDS011;16985;50.814;8.530;2022-11-21T14:28:12;9.27;;;3.63;;
30173;SDS011;16985;50.814;8.530;2022-11-21T14:30:45;7.25;;;2.83;;
30173;SDS011;16985;50.814;8.530;2022-11-21T14:35:48;6.65;;;3.22;;
30173;SDS011;16985;50.814;8.530;2022-11-21T14:38:25;3.72;;;2.45;;
30173;SDS011;16985;50.814;8.530;2022-11-21T14:49:15;5.05;;;2.97;;
30173;SDS011;16985;50.814;8.530;2022-11-21T14:51:52;5.60;;;2.67;;
30173;SDS011;16985;50.814;8.530;2022-11-21T14:54:52;6.40;;;3.15;;
30173;SDS011;16985;50.814;8.530;2022-11-21T14:57:22;6.30;;;2.67;;
30173;SDS011;16985;50.814;8.530;2022-11-21T14:59:55;5.57;;;2.50;;
30173;SDS011;16985;50.814;8.530;2022-11-21T15:02:25;3.28;;;2.47;;
30173;SDS011;16985;50.814;8.530;2022-11-21T15:05:00;9.07;;;2.55;;
30173;SDS011;16985;50.814;8.530;2022-11-21T15:07:35;4.75;;;3.08;;
30173;SDS011;16985;50.814;8.530;2022-11-21T15:10:07;5.07;;;2.58;;
30173;SDS011;16985;50.814;8.530;2022-11-21T15:18:06;6.68;;;3.83;;
30173;SDS011;16985;50.814;8.530;2022-11-21T15:20:43;11.48;;;4.78;;
30173;SDS011;16985;50.814;8.530;2022-11-21T15:23:24;8.38;;;4.22;;
30173;SDS011;16985;50.814;8.530;2022-11-21T15:26:02;9.75;;;3.97;;
30173;SDS011;16985;50.814;8.530;2022-11-21T15:28:29;8.57;;;4.22;;
30173;SDS011;16985;50.814;8.530;2022-11-21T15:33:55;10.95;;;5.63;;
30173;SDS011;16985;50.814;8.530;2022-11-21T15:36:30;14.15;;;6.68;;
30173;SDS011;16985;50.814;8.530;2022-11-21T15:39:18;12.88;;;6.35;;
30173;SDS011;16985;50.814;8.530;2022-11-21T15:41:46;10.70;;;6.28;;
30173;SDS011;16985;50.814;8.530;2022-11-21T15:46:44;10.98;;;8.00;;
30173;SDS011;16985;50.814;8.530;2022-11-21T15:49:11;21.33;;;7.72;;
30173;SDS011;16985;50.814;8.530;2022-11-21T15:51:39;12.87;;;7.67;;
30173;SDS011;16985;50.814;8.530;2022-11-21T15:54:17;13.98;;;8.07;;
30173;SDS011;16985;50.814;8.530;2022-11-21T15:56:46;23.70;;;10.63;;
30173;SDS011;16985;50.814;8.530;2022-11-21T15:59:12;15.25;;;9.13;;
30173;SDS011;16985;50.814;8.530;2022-11-21T16:01:39;16.50;;;9.60;;
30173;SDS011;16985;50.814;8.530;2022-11-21T16:04:06;23.52;;;10.68;;
30173;SDS011;16985;50.814;8.530;2022-11-21T16:06:35;24.08;;;10.60;;
30173;SDS011;16985;50.814;8.530;2022-11-21T16:09:02;23.13;;;11.98;;
30173;SDS011;16985;50.814;8.530;2022-11-21T16:11:29;24.70;;;11.50;;
30173;SDS011;16985;50.814;8.530;2022-11-21T16:13:57;22.45;;;13.18;;
30173;SDS011;16985;50.814;8.530;2022-11-21T16:16:27;21.90;;;13.43;;
30173;SDS011;16985;50.814;8.530;2022-11-21T16:18:57;21.05;;;12.93;;
30173;SDS011;16985;50.814;8.530;2022-11-21T16:21:24;18.30;;;11.77;;
30173;SDS011;16985;50.814;8.530;2022-11-21T16:23:50;19.83;;;10.88;;
30173;SDS011;16985;50.814;8.530;2022-11-21T16:26:16;19.10;;;11.70;;
30173;SDS011;16985;50.814;8.530;2022-11-21T16:28:43;19.92;;;11.63;;
30173;SDS011;16985;50.814;8.530;2022-11-21T16:31:19;19.63;;;12.60;;
30173;SDS011;16985;50.814;8.530;2022-11-21T16:33:50;25.02;;;13.15;;
30173;SDS011;16985;50.814;8.530;2022-11-21T16:36:20;20.30;;;12.30;;
30173;SDS011;16985;50.814;8.530;2022-11-21T16:38:56;20.90;;;13.88;;
30173;SDS011;16985;50.814;8.530;2022-11-21T16:41:22;21.35;;;12.63;;
30173;SDS011;16985;50.814;8.530;2022-11-21T16:43:49;23.90;;;14.70;;
30173;SDS011;16985;50.814;8.530;2022-11-21T16:46:18;23.73;;;15.00;;
30173;SDS011;16985;50.814;8.530;2022-11-21T16:48:45;21.67;;;14.52;;
30173;SDS011;16985;50.814;8.530;2022-11-21T16:51:16;24.70;;;15.38;;
30173;SDS011;16985;50.814;8.530;2022-11-21T16:53:44;23.02;;;15.27;;
30173;SDS011;16985;50.814;8.530;2022-11-21T16:56:12;28.40;;;17.35;;
30173;SDS011;16985;50.814;8.530;2022-11-21T16:58:39;29.77;;;18.38;;
30173;SDS011;16985;50.814;8.530;2022-11-21T17:01:06;27.70;;;17.35;;
30173;SDS011;16985;50.814;8.530;2022-11-21T17:03:44;27.33;;;17.23;;
30173;SDS011;16985;50.814;8.530;2022-11-21T17:06:12;25.63;;;16.67;;
30173;SDS011;16985;50.814;8.530;2022-11-21T17:08:43;27.63;;;17.15;;
30173;SDS011;16985;50.814;8.530;2022-11-21T17:11:13;33.88;;;20.27;;
30173;SDS011;16985;50.814;8.530;2022-11-21T17:13:44;30.33;;;19.45;;
30173;SDS011;16985;50.814;8.530;2022-11-21T17:16:11;30.65;;;20.30;;
30173;SDS011;16985;50.814;8.530;2022-11-21T17:18:38;36.53;;;20.35;;